Time,TemperatureF,DewpointF,PressureIn,WindDirection,WindDirectionDegrees,WindSpeedMPH,WindSpeedGustMPH,Humidity,HourlyPrecipIn,Conditions,Clouds,dailyrainin,SoftwareType,DateUTC
2013-08-21 00:02:00,69.1,65.4,30.03,West,260,0.0,0.0,88,0.00,,,0.00,Wunderground v.1.15,2013-08-21 04:02:00,
2013-08-21 00:04:00,69.1,65.4,30.03,West,260,0.0,0.0,88,0.00,,,0.00,Wunderground v.1.15,2013-08-21 04:04:00,
2013-08-21 00:10:00,69.1,65.4,30.03,West,260,0.0,0.0,88,0.00,,,0.00,Wunderground v.1.15,2013-08-21 04:10:00,
2013-08-21 00:12:00,68.9,65.2,30.03,West,260,0.0,0.0,88,0.00,,,0.00,Wunderground v.1.15,2013-08-21 04:12:00,
2013-08-21 00:14:00,68.9,65.2,30.03,West,260,0.0,0.0,88,0.00,,,0.00,Wunderground v.1.15,2013-08-21 04:14:00,
2013-08-21 00:20:00,68.9,65.5,30.03,West,260,0.0,0.0,89,0.00,,,0.00,Wunderground v.1.15,2013-08-21 04:20:00,
2013-08-21 00:26:00,68.8,65.4,30.03,West,260,0.0,0.0,89,0.00,,,0.00,Wunderground v.1.15,2013-08-21 04:26:00,
2013-08-21 00:32:00,68.8,65.4,30.03,West,260,0.0,0.0,89,0.00,,,0.00,Wunderground v.1.15,2013-08-21 04:32:00,
2013-08-21 00:38:00,68.6,65.5,30.03,West,260,0.0,0.0,90,0.00,,,0.00,Wunderground v.1.15,2013-08-21 04:38:00,
2013-08-21 00:44:00,68.6,65.5,30.03,West,260,0.0,0.0,90,0.00,,,0.00,Wunderground v.1.15,2013-08-21 04:44:00,
2013-08-21 00:50:00,68.4,65.4,30.03,West,260,0.0,0.0,90,0.00,,,0.00,Wunderground v.1.15,2013-08-21 04:50:00,
2013-08-21 00:56:00,68.4,65.4,30.03,West,260,0.0,0.0,90,0.00,,,0.00,Wunderground v.1.15,2013-08-21 04:56:00,
2013-08-21 01:02:00,68.4,65.7,30.03,West,260,0.0,0.0,91,0.00,,,0.00,Wunderground v.1.15,2013-08-21 05:02:00,
2013-08-21 01:08:00,68.4,65.7,30.03,West,260,0.0,0.0,91,0.00,,,0.00,Wunderground v.1.15,2013-08-21 05:08:00,
2013-08-21 01:14:00,68.4,65.7,30.03,West,260,0.0,0.0,91,0.00,,,0.00,Wunderground v.1.15,2013-08-21 05:14:00,
2013-08-21 01:20:00,68.6,65.9,30.03,West,260,0.0,0.0,91,0.00,,,0.00,Wunderground v.1.15,2013-08-21 05:20:00,
2013-08-21 01:26:00,68.6,66.2,30.03,West,260,0.0,0.0,92,0.00,,,0.00,Wunderground v.1.15,2013-08-21 05:26:00,
2013-08-21 01:32:00,68.6,66.2,30.03,West,260,0.0,0.0,92,0.00,,,0.00,Wunderground v.1.15,2013-08-21 05:32:00,
2013-08-21 01:38:00,68.4,66.0,30.03,West,260,0.0,0.0,92,0.00,,,0.00,Wunderground v.1.15,2013-08-21 05:38:00,
2013-08-21 01:44:00,68.4,66.0,30.03,West,260,0.0,0.0,92,0.00,,,0.00,Wunderground v.1.15,2013-08-21 05:44:00,
2013-08-21 01:50:00,68.3,65.9,30.03,West,260,0.0,0.0,92,0.00,,,0.00,Wunderground v.1.15,2013-08-21 05:50:00,
2013-08-21 01:56:00,68.3,65.9,30.03,West,260,0.0,0.0,92,0.00,,,0.00,Wunderground v.1.15,2013-08-21 05:56:00,
2013-08-21 02:02:00,68.1,65.7,30.03,West,260,0.0,0.0,92,0.00,,,0.00,Wunderground v.1.15,2013-08-21 06:02:00,
2013-08-21 02:08:00,67.9,65.5,30.03,West,260,0.0,0.0,92,0.00,,,0.00,Wunderground v.1.15,2013-08-21 06:08:00,
2013-08-21 02:14:00,67.9,65.5,30.02,West,260,0.0,0.0,92,0.00,,,0.00,Wunderground v.1.15,2013-08-21 06:14:00,
2013-08-21 02:20:00,67.8,65.4,30.02,West,260,0.0,0.0,92,0.00,,,0.00,Wunderground v.1.15,2013-08-21 06:20:00,
2013-08-21 02:26:00,67.6,65.2,30.02,West,260,0.0,0.0,92,0.00,,,0.00,Wunderground v.1.15,2013-08-21 06:26:00,
2013-08-21 02:32:00,67.4,65.0,30.02,West,260,0.0,0.0,92,0.00,,,0.00,Wunderground v.1.15,2013-08-21 06:32:00,
2013-08-21 02:38:00,67.3,64.9,30.02,West,260,0.0,0.0,92,0.00,,,0.00,Wunderground v.1.15,2013-08-21 06:38:00,
2013-08-21 02:44:00,67.3,64.9,30.03,West,260,0.0,0.0,92,0.00,,,0.00,Wunderground v.1.15,2013-08-21 06:44:00,
2013-08-21 02:50:00,67.1,64.7,30.03,West,260,0.0,0.0,92,0.00,,,0.00,Wunderground v.1.15,2013-08-21 06:50:00,
2013-08-21 02:56:00,66.9,64.5,30.03,West,260,0.0,0.0,92,0.00,,,0.00,Wunderground v.1.15,2013-08-21 06:56:00,
2013-08-21 03:02:00,66.9,64.5,30.03,West,260,0.0,0.0,92,0.00,,,0.00,Wunderground v.1.15,2013-08-21 07:02:00,
2013-08-21 03:08:00,66.8,64.4,30.03,West,260,0.0,0.0,92,0.00,,,0.00,Wunderground v.1.15,2013-08-21 07:08:00,
2013-08-21 03:14:00,66.6,64.2,30.03,West,260,0.0,0.0,92,0.00,,,0.00,Wunderground v.1.15,2013-08-21 07:14:00,
2013-08-21 03:20:00,66.4,64.0,30.03,West,260,0.0,0.0,92,0.00,,,0.00,Wunderground v.1.15,2013-08-21 07:20:00,
2013-08-21 03:26:00,66.4,64.3,30.03,West,260,0.0,0.0,93,0.00,,,0.00,Wunderground v.1.15,2013-08-21 07:26:00,
2013-08-21 03:32:00,66.3,64.2,30.03,West,260,0.0,0.0,93,0.00,,,0.00,Wunderground v.1.15,2013-08-21 07:32:00,
2013-08-21 03:38:00,66.3,64.2,30.03,West,260,0.0,0.0,93,0.00,,,0.00,Wunderground v.1.15,2013-08-21 07:38:00,
2013-08-21 03:44:00,66.3,64.2,30.03,West,260,0.0,0.0,93,0.00,,,0.00,Wunderground v.1.15,2013-08-21 07:44:00,
2013-08-21 03:50:00,66.1,64.0,30.03,West,260,0.0,0.0,93,0.00,,,0.00,Wunderground v.1.15,2013-08-21 07:50:00,
2013-08-21 03:56:00,66.1,64.0,30.03,West,260,0.0,0.0,93,0.00,,,0.00,Wunderground v.1.15,2013-08-21 07:56:00,
2013-08-21 04:02:00,66.1,64.0,30.03,West,260,0.0,0.0,93,0.00,,,0.00,Wunderground v.1.15,2013-08-21 08:02:00,
2013-08-21 04:08:00,66.0,63.9,30.03,West,260,0.0,0.0,93,0.00,,,0.00,Wunderground v.1.15,2013-08-21 08:08:00,
2013-08-21 04:14:00,66.0,63.9,30.03,West,260,0.0,0.0,93,0.00,,,0.00,Wunderground v.1.15,2013-08-21 08:14:00,
2013-08-21 04:20:00,65.8,63.7,30.03,West,260,0.0,0.0,93,0.00,,,0.00,Wunderground v.1.15,2013-08-21 08:20:00,
2013-08-21 04:26:00,65.8,63.7,30.04,West,260,0.0,0.0,93,0.00,,,0.00,Wunderground v.1.15,2013-08-21 08:26:00,
2013-08-21 04:32:00,65.8,63.7,30.04,West,260,0.0,0.0,93,0.00,,,0.00,Wunderground v.1.15,2013-08-21 08:32:00,
2013-08-21 04:38:00,65.6,63.8,30.04,West,260,0.0,0.0,94,0.00,,,0.00,Wunderground v.1.15,2013-08-21 08:38:00,
2013-08-21 04:44:00,65.6,63.8,30.04,West,260,0.0,0.0,94,0.00,,,0.00,Wunderground v.1.15,2013-08-21 08:44:00,
2013-08-21 04:50:00,65.6,63.8,30.04,West,260,0.0,0.0,94,0.00,,,0.00,Wunderground v.1.15,2013-08-21 08:50:00,
2013-08-21 04:56:00,65.5,63.7,30.04,West,260,0.0,0.0,94,0.00,,,0.00,Wunderground v.1.15,2013-08-21 08:56:00,
2013-08-21 05:02:00,65.5,63.7,30.04,West,260,0.0,0.0,94,0.00,,,0.00,Wunderground v.1.15,2013-08-21 09:02:00,
2013-08-21 05:08:00,65.5,63.7,30.04,West,260,0.0,0.0,94,0.00,,,0.00,Wunderground v.1.15,2013-08-21 09:08:00,
2013-08-21 05:14:00,65.5,63.7,30.05,West,260,0.0,0.0,94,0.00,,,0.00,Wunderground v.1.15,2013-08-21 09:14:00,
2013-08-21 05:20:00,65.5,63.7,30.05,West,260,0.0,0.0,94,0.00,,,0.00,Wunderground v.1.15,2013-08-21 09:20:00,
2013-08-21 05:26:00,65.5,63.7,30.05,West,260,0.0,0.0,94,0.00,,,0.00,Wunderground v.1.15,2013-08-21 09:26:00,
2013-08-21 05:32:00,65.5,63.7,30.05,West,260,0.0,0.0,94,0.00,,,0.00,Wunderground v.1.15,2013-08-21 09:32:00,
2013-08-21 05:38:00,65.5,63.7,30.05,West,260,0.0,0.0,94,0.00,,,0.00,Wunderground v.1.15,2013-08-21 09:38:00,
2013-08-21 05:44:00,65.6,64.1,30.05,West,260,0.0,0.0,95,0.00,,,0.00,Wunderground v.1.15,2013-08-21 09:44:00,
2013-08-21 05:50:00,65.8,64.3,30.05,West,260,0.0,0.0,95,0.00,,,0.00,Wunderground v.1.15,2013-08-21 09:50:00,
2013-08-21 05:56:00,66.0,64.5,30.05,West,260,0.0,0.0,95,0.00,,,0.00,Wunderground v.1.15,2013-08-21 09:56:00,
2013-08-21 06:02:00,66.0,64.5,30.05,West,260,0.0,0.0,95,0.00,,,0.00,Wunderground v.1.15,2013-08-21 10:02:00,
2013-08-21 06:08:00,66.0,64.5,30.05,West,260,0.0,0.0,95,0.00,,,0.00,Wunderground v.1.15,2013-08-21 10:08:00,
2013-08-21 06:14:00,65.8,64.3,30.06,West,260,0.0,0.0,95,0.00,,,0.00,Wunderground v.1.15,2013-08-21 10:14:00,
2013-08-21 06:20:00,65.8,64.3,30.06,West,260,0.0,0.0,95,0.00,,,0.00,Wunderground v.1.15,2013-08-21 10:20:00,
2013-08-21 06:26:00,65.6,64.1,30.06,West,260,0.0,0.0,95,0.00,,,0.00,Wunderground v.1.15,2013-08-21 10:26:00,
2013-08-21 06:32:00,65.5,64.0,30.06,West,260,0.0,0.0,95,0.00,,,0.00,Wunderground v.1.15,2013-08-21 10:32:00,
2013-08-21 06:38:00,65.5,64.0,30.06,West,260,0.0,0.0,95,0.00,,,0.00,Wunderground v.1.15,2013-08-21 10:38:00,
2013-08-21 06:44:00,65.5,64.0,30.07,West,260,0.0,0.0,95,0.00,,,0.00,Wunderground v.1.15,2013-08-21 10:44:00,
2013-08-21 06:50:00,65.5,64.0,30.07,West,260,0.0,0.0,95,0.00,,,0.00,Wunderground v.1.15,2013-08-21 10:50:00,
2013-08-21 06:56:00,65.5,64.0,30.07,West,260,0.0,0.0,95,0.00,,,0.00,Wunderground v.1.15,2013-08-21 10:56:00,
2013-08-21 07:02:00,65.6,64.1,30.07,West,260,0.0,0.0,95,0.00,,,0.00,Wunderground v.1.15,2013-08-21 11:02:00,
2013-08-21 07:08:00,65.8,64.3,30.07,West,260,0.0,0.0,95,0.00,,,0.00,Wunderground v.1.15,2013-08-21 11:08:00,
2013-08-21 07:14:00,66.1,64.9,30.07,West,260,0.0,0.0,96,0.00,,,0.00,Wunderground v.1.15,2013-08-21 11:14:00,
2013-08-21 07:20:00,66.3,64.8,30.07,West,260,0.0,0.0,95,0.00,,,0.00,Wunderground v.1.15,2013-08-21 11:20:00,
2013-08-21 07:26:00,66.4,65.2,30.07,West,260,0.0,0.0,96,0.00,,,0.00,Wunderground v.1.15,2013-08-21 11:26:00,
2013-08-21 07:32:00,66.8,65.6,30.07,West,260,0.0,0.0,96,0.00,,,0.00,Wunderground v.1.15,2013-08-21 11:32:00,
2013-08-21 07:38:00,67.1,65.9,30.07,West,260,0.0,0.0,96,0.00,,,0.00,Wunderground v.1.15,2013-08-21 11:38:00,
2013-08-21 07:44:00,67.8,66.6,30.08,West,260,0.0,0.0,96,0.00,,,0.00,Wunderground v.1.15,2013-08-21 11:44:00,
2013-08-21 07:50:00,68.3,67.1,30.08,West,260,0.0,0.0,96,0.00,,,0.00,Wunderground v.1.15,2013-08-21 11:50:00,
2013-08-21 07:56:00,68.9,67.7,30.08,West,260,0.0,0.0,96,0.00,,,0.00,Wunderground v.1.15,2013-08-21 11:56:00,
2013-08-21 08:02:00,69.3,68.1,30.08,West,260,0.0,0.0,96,0.00,,,0.00,Wunderground v.1.15,2013-08-21 12:02:00,
2013-08-21 08:08:00,69.6,68.4,30.08,West,260,0.0,0.0,96,0.00,,,0.00,Wunderground v.1.15,2013-08-21 12:08:00,
2013-08-21 08:14:00,70.3,69.1,30.08,West,260,0.0,0.0,96,0.00,,,0.00,Wunderground v.1.15,2013-08-21 12:14:00,
2013-08-21 08:20:00,70.6,69.4,30.08,West,260,0.0,0.0,96,0.00,,,0.00,Wunderground v.1.15,2013-08-21 12:20:00,
2013-08-21 08:26:00,70.9,69.4,30.08,West,260,0.0,0.0,95,0.00,,,0.00,Wunderground v.1.15,2013-08-21 12:26:00,
2013-08-21 08:32:00,71.1,69.6,30.08,West,260,0.0,0.0,95,0.00,,,0.00,Wunderground v.1.15,2013-08-21 12:32:00,
2013-08-21 08:38:00,71.8,70.0,30.08,West,260,0.0,0.0,94,0.00,,,0.00,Wunderground v.1.15,2013-08-21 12:38:00,
2013-08-21 08:44:00,72.7,69.6,30.08,West,260,0.0,0.0,90,0.00,,,0.00,Wunderground v.1.15,2013-08-21 12:44:00,
2013-08-21 08:50:00,73.7,69.2,30.08,West,260,0.0,0.0,86,0.00,,,0.00,Wunderground v.1.15,2013-08-21 12:50:00,
2013-08-21 08:56:00,74.7,67.8,30.08,West,260,0.0,0.0,79,0.00,,,0.00,Wunderground v.1.15,2013-08-21 12:56:00,
2013-08-21 09:02:00,75.6,67.1,30.08,West,260,0.0,0.0,75,0.00,,,0.00,Wunderground v.1.15,2013-08-21 13:02:00,
2013-08-21 09:08:00,76.1,67.6,30.08,West,260,0.0,0.0,75,0.00,,,0.00,Wunderground v.1.15,2013-08-21 13:08:00,
2013-08-21 09:14:00,77.0,67.7,30.08,West,265,0.0,0.0,73,0.00,,,0.00,Wunderground v.1.15,2013-08-21 13:14:00,
2013-08-21 09:20:00,77.9,67.3,30.08,West,265,0.0,0.0,70,0.00,,,0.00,Wunderground v.1.15,2013-08-21 13:20:00,
2013-08-21 09:26:00,78.6,66.7,30.08,West,265,0.0,0.0,67,0.00,,,0.00,Wunderground v.1.15,2013-08-21 13:26:00,
2013-08-21 09:32:00,79.4,64.8,30.08,West,265,0.0,0.0,61,0.00,,,0.00,Wunderground v.1.15,2013-08-21 13:32:00,
2013-08-21 09:38:00,79.6,64.0,30.08,West,265,0.0,0.0,59,0.00,,,0.00,Wunderground v.1.15,2013-08-21 13:38:00,
2013-08-21 09:44:00,80.3,64.7,30.08,West,265,0.0,0.0,59,0.00,,,0.00,Wunderground v.1.15,2013-08-21 13:44:00,
2013-08-21 09:50:00,80.9,64.7,30.08,West,265,0.0,0.0,58,0.00,,,0.00,Wunderground v.1.15,2013-08-21 13:50:00,
2013-08-21 09:56:00,81.4,65.2,30.08,West,265,0.0,0.0,58,0.00,,,0.00,Wunderground v.1.15,2013-08-21 13:56:00,
2013-08-21 10:02:00,81.6,64.9,30.08,West,265,0.0,0.0,57,0.00,,,0.00,Wunderground v.1.15,2013-08-21 14:02:00,
2013-08-21 10:08:00,81.8,63.5,30.08,West,265,0.0,0.0,54,0.00,,,0.00,Wunderground v.1.15,2013-08-21 14:08:00,
2013-08-21 10:14:00,82.0,64.2,30.08,West,265,0.0,0.0,55,0.00,,,0.00,Wunderground v.1.15,2013-08-21 14:14:00,
2013-08-21 10:20:00,82.2,62.8,30.08,West,264,0.0,0.0,52,0.00,,,0.00,Wunderground v.1.15,2013-08-21 14:20:00,
2013-08-21 10:26:00,82.4,65.6,30.08,West,264,0.0,0.0,57,0.00,,,0.00,Wunderground v.1.15,2013-08-21 14:26:00,
2013-08-21 10:32:00,82.8,66.5,30.08,West,264,0.0,0.0,58,0.00,,,0.00,Wunderground v.1.15,2013-08-21 14:32:00,
2013-08-21 10:38:00,82.8,63.9,30.08,ESE,113,0.0,0.0,53,0.00,,,0.00,Wunderground v.1.15,2013-08-21 14:38:00,
2013-08-21 10:44:00,82.4,65.1,30.08,ESE,113,0.0,0.0,56,0.00,,,0.00,Wunderground v.1.15,2013-08-21 14:44:00,
2013-08-21 10:50:00,82.6,63.2,30.08,East,96,0.0,0.0,52,0.00,,,0.00,Wunderground v.1.15,2013-08-21 14:50:00,
2013-08-21 10:56:00,82.8,63.9,30.08,East,96,0.0,0.0,53,0.00,,,0.00,Wunderground v.1.15,2013-08-21 14:56:00,
2013-08-21 11:02:00,83.4,62.2,30.08,East,96,0.0,0.0,49,0.00,,,0.00,Wunderground v.1.15,2013-08-21 15:02:00,
2013-08-21 11:08:00,84.0,63.9,30.08,East,96,0.0,0.0,51,0.00,,,0.00,Wunderground v.1.15,2013-08-21 15:08:00,
2013-08-21 11:14:00,84.3,63.1,30.08,East,96,0.0,0.0,49,0.00,,,0.00,Wunderground v.1.15,2013-08-21 15:14:00,
2013-08-21 11:20:00,84.7,64.0,30.08,East,96,0.0,0.0,50,0.00,,,0.00,Wunderground v.1.15,2013-08-21 15:20:00,
2013-08-21 11:26:00,85.1,62.6,30.08,East,96,0.0,0.0,47,0.00,,,0.00,Wunderground v.1.15,2013-08-21 15:26:00,
2013-08-21 11:32:00,85.1,60.7,30.08,ESE,123,0.0,0.0,44,0.00,,,0.00,Wunderground v.1.15,2013-08-21 15:32:00,
2013-08-21 11:38:00,85.3,61.6,30.08,ESE,120,0.0,0.0,45,0.00,,,0.00,Wunderground v.1.15,2013-08-21 15:38:00,
2013-08-21 11:44:00,85.7,61.3,30.08,ESE,120,0.0,0.0,44,0.00,,,0.00,Wunderground v.1.15,2013-08-21 15:44:00,
2013-08-21 11:50:00,86.1,62.3,30.08,NE,41,0.0,0.0,45,0.00,,,0.00,Wunderground v.1.15,2013-08-21 15:50:00,
2013-08-21 11:56:00,85.7,60.0,30.08,ENE,61,0.0,0.0,42,0.00,,,0.00,Wunderground v.1.15,2013-08-21 15:56:00,
2013-08-21 12:02:00,85.5,61.1,30.08,East,80,0.0,0.0,44,0.00,,,0.00,Wunderground v.1.15,2013-08-21 16:02:00,
2013-08-21 12:08:00,85.5,60.4,30.08,ENE,58,0.0,0.0,43,0.00,,,0.00,Wunderground v.1.15,2013-08-21 16:08:00,
2013-08-21 12:14:00,86.3,62.5,30.07,ENE,58,0.0,0.0,45,0.00,,,0.00,Wunderground v.1.15,2013-08-21 16:14:00,
2013-08-21 12:20:00,87.0,61.8,30.07,ENE,58,0.0,0.0,43,0.00,,,0.00,Wunderground v.1.15,2013-08-21 16:20:00,
2013-08-21 12:26:00,87.0,60.5,30.07,NNE,16,0.0,0.0,41,0.00,,,0.00,Wunderground v.1.15,2013-08-21 16:26:00,
2013-08-21 12:32:00,87.0,59.0,30.07,ENE,62,0.0,0.0,39,0.00,,,0.00,Wunderground v.1.15,2013-08-21 16:32:00,
2013-08-21 12:38:00,87.0,59.0,30.07,ENE,61,0.0,0.0,39,0.00,,,0.00,Wunderground v.1.15,2013-08-21 16:38:00,
2013-08-21 12:44:00,86.7,60.9,30.06,ENE,61,0.0,0.0,42,0.00,,,0.00,Wunderground v.1.15,2013-08-21 16:44:00,
2013-08-21 12:50:00,87.2,59.2,30.06,ENE,61,0.0,0.0,39,0.00,,,0.00,Wunderground v.1.15,2013-08-21 16:50:00,
2013-08-21 12:56:00,87.4,58.7,30.06,ENE,61,0.0,0.0,38,0.00,,,0.00,Wunderground v.1.15,2013-08-21 16:56:00,
2013-08-21 13:02:00,87.0,56.0,30.06,NE,34,0.0,0.0,35,0.00,,,0.00,Wunderground v.1.15,2013-08-21 17:02:00,
2013-08-21 13:08:00,87.2,58.5,30.06,NE,34,0.0,1.0,38,0.00,,,0.00,Wunderground v.1.15,2013-08-21 17:08:00,
2013-08-21 13:14:00,87.6,56.6,30.06,NE,34,0.0,1.0,35,0.00,,,0.00,Wunderground v.1.15,2013-08-21 17:14:00,
2013-08-21 13:20:00,88.0,56.9,30.06,NE,34,0.0,1.0,35,0.00,,,0.00,Wunderground v.1.15,2013-08-21 17:20:00,
2013-08-21 13:26:00,88.2,56.3,30.06,NE,35,0.0,1.0,34,0.00,,,0.00,Wunderground v.1.15,2013-08-21 17:26:00,
2013-08-21 13:32:00,88.4,58.1,30.06,NE,35,0.0,1.0,36,0.00,,,0.00,Wunderground v.1.15,2013-08-21 17:32:00,
2013-08-21 13:38:00,87.8,54.3,30.06,ENE,78,0.0,1.0,32,0.00,,,0.00,Wunderground v.1.15,2013-08-21 17:38:00,
2013-08-21 13:44:00,86.7,55.8,30.05,NNE,25,0.0,1.0,35,0.00,,,0.00,Wunderground v.1.15,2013-08-21 17:44:00,
2013-08-21 13:50:00,87.0,56.0,30.05,ENE,59,0.0,1.0,35,0.00,,,0.00,Wunderground v.1.15,2013-08-21 17:50:00,
2013-08-21 13:56:00,87.4,57.2,30.04,SSW,209,0.0,1.0,36,0.00,,,0.00,Wunderground v.1.15,2013-08-21 17:56:00,
2013-08-21 14:02:00,87.4,54.8,30.04,NNE,32,0.0,1.0,33,0.00,,,0.00,Wunderground v.1.15,2013-08-21 18:02:00,
2013-08-21 14:08:00,87.8,57.5,30.04,NE,35,0.0,1.0,36,0.00,,,0.00,Wunderground v.1.15,2013-08-21 18:08:00,
2013-08-21 14:14:00,88.2,55.5,30.03,NE,55,0.0,0.0,33,0.00,,,0.00,Wunderground v.1.15,2013-08-21 18:14:00,
2013-08-21 14:20:00,88.0,56.9,30.03,SE,137,0.0,0.0,35,0.00,,,0.00,Wunderground v.1.15,2013-08-21 18:20:00,
2013-08-21 14:26:00,88.4,55.6,30.03,ESE,102,0.0,0.0,33,0.00,,,0.00,Wunderground v.1.15,2013-08-21 18:26:00,
2013-08-21 14:32:00,88.6,57.4,30.03,ESE,102,0.0,0.0,35,0.00,,,0.00,Wunderground v.1.15,2013-08-21 18:32:00,
2013-08-21 14:38:00,89.0,57.8,30.03,North,11,0.0,0.0,35,0.00,,,0.00,Wunderground v.1.15,2013-08-21 18:38:00,
2013-08-21 14:44:00,88.8,56.0,30.03,East,90,0.0,0.0,33,0.00,,,0.00,Wunderground v.1.15,2013-08-21 18:44:00,
2013-08-21 14:50:00,89.0,57.8,30.03,East,89,0.0,0.0,35,0.00,,,0.00,Wunderground v.1.15,2013-08-21 18:50:00,
2013-08-21 14:56:00,88.6,57.4,30.02,ENE,59,0.0,0.0,35,0.00,,,0.00,Wunderground v.1.15,2013-08-21 18:56:00,
2013-08-21 15:02:00,88.4,57.3,30.02,SE,130,0.0,0.0,35,0.00,,,0.00,Wunderground v.1.15,2013-08-21 19:02:00,
2013-08-21 15:08:00,88.4,58.8,30.02,ENE,58,0.0,0.0,37,0.00,,,0.00,Wunderground v.1.15,2013-08-21 19:08:00,
2013-08-21 15:14:00,88.6,59.0,30.01,ENE,69,0.0,0.0,37,0.00,,,0.00,Wunderground v.1.15,2013-08-21 19:14:00,
2013-08-21 15:20:00,88.8,56.8,30.01,East,80,0.0,0.0,34,0.00,,,0.00,Wunderground v.1.15,2013-08-21 19:20:00,
2013-08-21 15:26:00,88.6,58.2,30.01,ENE,65,0.0,0.0,36,0.00,,,0.00,Wunderground v.1.15,2013-08-21 19:26:00,
2013-08-21 15:32:00,88.8,58.4,30.01,ENE,65,0.0,0.0,36,0.00,,,0.00,Wunderground v.1.15,2013-08-21 19:32:00,
2013-08-21 15:38:00,88.6,58.2,30.01,ENE,65,0.0,0.0,36,0.00,,,0.00,Wunderground v.1.15,2013-08-21 19:38:00,
2013-08-21 15:44:00,88.4,59.6,30.01,ENE,62,0.0,0.0,38,0.00,,,0.00,Wunderground v.1.15,2013-08-21 19:44:00,
2013-08-21 15:50:00,88.2,57.1,30.01,ENE,62,0.0,0.0,35,0.00,,,0.00,Wunderground v.1.15,2013-08-21 19:50:00,
2013-08-21 15:56:00,88.4,58.8,30.00,NW,322,0.0,0.0,37,0.00,,,0.00,Wunderground v.1.15,2013-08-21 19:56:00,
2013-08-21 16:02:00,88.4,60.3,30.00,North,8,0.0,0.0,39,0.00,,,0.00,Wunderground v.1.15,2013-08-21 20:02:00,
2013-08-21 16:08:00,88.4,58.8,30.00,North,8,0.0,0.0,37,0.00,,,0.00,Wunderground v.1.15,2013-08-21 20:08:00,
2013-08-21 16:14:00,88.6,57.4,30.00,NNW,337,0.0,0.0,35,0.00,,,0.00,Wunderground v.1.15,2013-08-21 20:14:00,
2013-08-21 16:20:00,88.6,57.4,30.00,NNW,337,0.0,0.0,35,0.00,,,0.00,Wunderground v.1.15,2013-08-21 20:20:00,
2013-08-21 16:26:00,88.6,58.2,30.00,West,261,0.0,0.0,36,0.00,,,0.00,Wunderground v.1.15,2013-08-21 20:26:00,
2013-08-21 16:32:00,88.4,59.6,30.00,West,280,0.0,0.0,38,0.00,,,0.00,Wunderground v.1.15,2013-08-21 20:32:00,
2013-08-21 16:38:00,88.0,58.5,30.00,WSW,256,1.0,1.0,37,0.00,,,0.00,Wunderground v.1.15,2013-08-21 20:38:00,
2013-08-21 16:44:00,87.6,59.6,30.00,WNW,284,1.0,1.0,39,0.00,,,0.00,Wunderground v.1.15,2013-08-21 20:44:00,
2013-08-21 16:50:00,87.4,59.4,30.00,West,263,0.0,0.0,39,0.00,,,0.00,Wunderground v.1.15,2013-08-21 20:50:00,
2013-08-21 16:56:00,87.0,59.8,30.00,West,261,0.0,0.0,40,0.00,,,0.00,Wunderground v.1.15,2013-08-21 20:56:00,
2013-08-21 17:02:00,86.7,59.5,30.00,WSW,244,0.0,1.0,40,0.00,,,0.00,Wunderground v.1.15,2013-08-21 21:02:00,
2013-08-21 17:08:00,86.1,60.3,30.00,SSE,158,0.0,8.0,42,0.00,,,0.00,Wunderground v.1.15,2013-08-21 21:08:00,
2013-08-21 17:14:00,85.5,61.1,30.00,WNW,298,0.0,8.0,44,0.00,,,0.00,Wunderground v.1.15,2013-08-21 21:14:00,
2013-08-21 17:20:00,84.9,61.2,30.00,West,278,0.0,8.0,45,0.00,,,0.00,Wunderground v.1.15,2013-08-21 21:20:00,
2013-08-21 17:26:00,84.1,61.7,29.99,WSW,250,0.0,8.0,47,0.00,,,0.00,Wunderground v.1.15,2013-08-21 21:26:00,
2013-08-21 17:32:00,83.8,62.0,29.99,East,93,0.0,8.0,48,0.00,,,0.00,Wunderground v.1.15,2013-08-21 21:32:00,
2013-08-21 17:38:00,83.2,62.1,29.99,SW,219,0.0,8.0,49,0.00,,,0.00,Wunderground v.1.15,2013-08-21 21:38:00,
2013-08-21 17:44:00,83.0,63.0,29.99,WNW,284,0.0,8.0,51,0.00,,,0.00,Wunderground v.1.15,2013-08-21 21:44:00,
2013-08-21 17:50:00,82.6,63.2,29.99,WNW,288,0.0,8.0,52,0.00,,,0.00,Wunderground v.1.15,2013-08-21 21:50:00,
2013-08-21 17:56:00,82.2,63.4,29.99,West,270,0.0,8.0,53,0.00,,,0.00,Wunderground v.1.15,2013-08-21 21:56:00,
2013-08-21 18:02:00,81.8,63.0,29.99,WNW,294,0.0,8.0,53,0.00,,,0.00,Wunderground v.1.15,2013-08-21 22:02:00,
2013-08-21 18:08:00,81.6,63.9,29.99,NW,308,0.0,8.0,55,0.00,,,0.00,Wunderground v.1.15,2013-08-21 22:08:00,
2013-08-21 18:14:00,81.2,63.5,29.99,SSE,157,0.0,5.0,55,0.00,,,0.00,Wunderground v.1.15,2013-08-21 22:14:00,
2013-08-21 18:20:00,80.7,64.1,29.99,WNW,287,0.0,5.0,57,0.00,,,0.00,Wunderground v.1.15,2013-08-21 22:20:00,
2013-08-21 18:26:00,80.5,64.4,29.98,WSW,254,0.0,5.0,58,0.00,,,0.00,Wunderground v.1.15,2013-08-21 22:26:00,
2013-08-21 18:32:00,80.1,64.5,29.98,West,272,0.0,6.0,59,0.00,,,0.00,Wunderground v.1.15,2013-08-21 22:32:00,
2013-08-21 18:38:00,79.9,64.8,29.98,West,268,0.0,6.0,60,0.00,,,0.00,Wunderground v.1.15,2013-08-21 22:38:00,
2013-08-21 18:44:00,79.6,65.0,29.98,West,268,0.0,5.0,61,0.00,,,0.00,Wunderground v.1.15,2013-08-21 22:44:00,
2013-08-21 18:50:00,79.4,64.8,29.98,West,277,0.0,5.0,61,0.00,,,0.00,Wunderground v.1.15,2013-08-21 22:50:00,
2013-08-21 18:56:00,79.2,65.1,29.99,WSW,257,0.0,5.0,62,0.00,,,0.00,Wunderground v.1.15,2013-08-21 22:56:00,
2013-08-21 19:02:00,78.8,64.7,29.99,WNW,282,0.0,5.0,62,0.00,,,0.00,Wunderground v.1.15,2013-08-21 23:02:00,
2013-08-21 19:08:00,78.6,64.5,29.99,WNW,282,0.0,5.0,62,0.00,,,0.00,Wunderground v.1.15,2013-08-21 23:08:00,
2013-08-21 19:14:00,78.3,64.2,29.99,WNW,282,0.0,0.0,62,0.00,,,0.00,Wunderground v.1.15,2013-08-21 23:14:00,
2013-08-21 19:20:00,78.1,64.5,29.99,West,281,0.0,0.0,63,0.00,,,0.00,Wunderground v.1.15,2013-08-21 23:20:00,
2013-08-21 19:26:00,77.9,64.3,29.98,West,281,0.0,0.0,63,0.00,,,0.00,Wunderground v.1.15,2013-08-21 23:26:00,
2013-08-21 19:32:00,77.6,64.5,29.98,West,281,0.0,0.0,64,0.00,,,0.00,Wunderground v.1.15,2013-08-21 23:32:00,
2013-08-21 19:38:00,77.4,64.3,29.98,West,281,0.0,0.0,64,0.00,,,0.00,Wunderground v.1.15,2013-08-21 23:38:00,
2013-08-21 19:44:00,77.0,64.3,29.98,West,281,0.0,0.0,65,0.00,,,0.00,Wunderground v.1.15,2013-08-21 23:44:00,
2013-08-21 19:50:00,76.7,64.5,29.98,West,263,0.0,0.0,66,0.00,,,0.00,Wunderground v.1.15,2013-08-21 23:50:00,
2013-08-21 19:56:00,76.5,64.3,29.99,West,265,0.0,0.0,66,0.00,,,0.00,Wunderground v.1.15,2013-08-21 23:56:00,
2013-08-21 20:02:00,76.1,64.3,29.99,West,278,0.0,0.0,67,0.00,,,0.00,Wunderground v.1.15,2013-08-22 00:02:00,
2013-08-21 20:08:00,76.0,64.2,29.99,West,274,0.0,0.0,67,0.00,,,0.00,Wunderground v.1.15,2013-08-22 00:08:00,
2013-08-21 20:14:00,75.8,64.5,29.98,West,274,0.0,0.0,68,0.00,,,0.00,Wunderground v.1.15,2013-08-22 00:14:00,
2013-08-21 20:20:00,75.4,64.5,29.98,West,274,0.0,0.0,69,0.00,,,0.00,Wunderground v.1.15,2013-08-22 00:20:00,
2013-08-21 20:26:00,75.3,64.8,29.98,West,274,0.0,0.0,70,0.00,,,0.00,Wunderground v.1.15,2013-08-22 00:26:00,
2013-08-21 20:32:00,75.1,65.1,29.98,West,274,0.0,0.0,71,0.00,,,0.00,Wunderground v.1.15,2013-08-22 00:32:00,
2013-08-21 20:38:00,74.7,65.1,29.98,West,274,0.0,0.0,72,0.00,,,0.00,Wunderground v.1.15,2013-08-22 00:38:00,
2013-08-21 20:44:00,74.6,65.8,29.99,West,274,0.0,0.0,74,0.00,,,0.00,Wunderground v.1.15,2013-08-22 00:44:00,
2013-08-21 20:50:00,74.4,65.6,29.99,West,274,0.0,0.0,74,0.00,,,0.00,Wunderground v.1.15,2013-08-22 00:50:00,
2013-08-21 20:56:00,74.0,65.6,29.98,West,274,0.0,0.0,75,0.00,,,0.00,Wunderground v.1.15,2013-08-22 00:56:00,
2013-08-21 21:02:00,73.9,66.2,29.98,West,274,0.0,0.0,77,0.00,,,0.00,Wunderground v.1.15,2013-08-22 01:02:00,
2013-08-21 21:08:00,73.7,66.8,29.98,West,271,0.0,0.0,79,0.00,,,0.00,Wunderground v.1.15,2013-08-22 01:08:00,
2013-08-21 21:14:00,73.5,66.9,29.99,West,271,0.0,0.0,80,0.00,,,0.00,Wunderground v.1.15,2013-08-22 01:14:00,
2013-08-21 21:20:00,73.3,67.5,29.99,West,278,0.0,0.0,82,0.00,,,0.00,Wunderground v.1.15,2013-08-22 01:20:00,
2013-08-21 21:26:00,73.3,67.8,29.99,West,281,0.0,0.0,83,0.00,,,0.00,Wunderground v.1.15,2013-08-22 01:26:00,
2013-08-21 21:32:00,73.2,68.1,29.99,WSW,253,0.0,1.0,84,0.00,,,0.00,Wunderground v.1.15,2013-08-22 01:32:00,
2013-08-21 21:38:00,73.2,68.1,29.99,SW,232,0.0,2.0,84,0.00,,,0.00,Wunderground v.1.15,2013-08-22 01:38:00,
2013-08-21 21:44:00,73.2,68.4,29.99,WSW,243,0.0,0.0,85,0.00,,,0.00,Wunderground v.1.15,2013-08-22 01:44:00,
2013-08-21 21:50:00,73.0,68.2,29.99,SW,227,0.0,0.0,85,0.00,,,0.00,Wunderground v.1.15,2013-08-22 01:50:00,
2013-08-21 21:56:00,73.0,68.6,29.99,SW,229,0.0,0.0,86,0.00,,,0.00,Wunderground v.1.15,2013-08-22 01:56:00,
2013-08-21 22:02:00,72.8,68.4,29.99,WNW,285,0.0,0.0,86,0.00,,,0.00,Wunderground v.1.15,2013-08-22 02:02:00,
2013-08-21 22:08:00,72.8,68.7,29.99,West,264,0.0,2.0,87,0.00,,,0.00,Wunderground v.1.15,2013-08-22 02:08:00,
2013-08-21 22:14:00,72.7,68.6,29.99,West,275,0.0,1.0,87,0.00,,,0.00,Wunderground v.1.15,2013-08-22 02:14:00,
2013-08-21 22:20:00,72.7,68.6,29.99,WSW,241,0.0,1.0,87,0.00,,,0.00,Wunderground v.1.15,2013-08-22 02:20:00,
2013-08-21 22:26:00,72.7,68.9,29.99,WNW,284,0.0,1.0,88,0.00,,,0.00,Wunderground v.1.15,2013-08-22 02:26:00,
2013-08-21 22:32:00,72.5,68.7,29.99,WNW,284,0.0,1.0,88,0.00,,,0.00,Wunderground v.1.15,2013-08-22 02:32:00,
2013-08-21 22:38:00,72.5,68.7,29.99,WNW,298,0.0,1.0,88,0.00,,,0.00,Wunderground v.1.15,2013-08-22 02:38:00,
2013-08-21 22:44:00,72.3,68.5,29.99,West,275,0.0,1.0,88,0.00,,,0.00,Wunderground v.1.15,2013-08-22 02:44:00,
2013-08-21 22:50:00,72.3,68.5,29.99,West,274,0.0,1.0,88,0.00,,,0.00,Wunderground v.1.15,2013-08-22 02:50:00,
2013-08-21 22:56:00,72.3,68.9,29.98,WNW,282,0.0,1.0,89,0.00,,,0.00,Wunderground v.1.15,2013-08-22 02:56:00,
2013-08-21 23:02:00,72.1,68.7,29.98,West,281,0.0,1.0,89,0.00,,,0.00,Wunderground v.1.15,2013-08-22 03:02:00,
2013-08-21 23:08:00,72.0,68.6,29.98,West,281,0.0,1.0,89,0.00,,,0.00,Wunderground v.1.15,2013-08-22 03:08:00,
2013-08-21 23:14:00,72.0,68.6,29.97,West,281,0.0,1.0,89,0.00,,,0.00,Wunderground v.1.15,2013-08-22 03:14:00,
2013-08-21 23:20:00,71.8,68.4,29.97,West,281,0.0,1.0,89,0.00,,,0.00,Wunderground v.1.15,2013-08-22 03:20:00,
2013-08-21 23:26:00,71.6,68.2,29.97,West,281,0.0,1.0,89,0.00,,,0.00,Wunderground v.1.15,2013-08-22 03:26:00,
2013-08-21 23:32:00,71.5,68.4,29.97,West,281,0.0,1.0,90,0.00,,,0.00,Wunderground v.1.15,2013-08-22 03:32:00,
2013-08-21 23:38:00,71.5,68.4,29.97,West,281,0.0,1.0,90,0.00,,,0.00,Wunderground v.1.15,2013-08-22 03:38:00,
2013-08-21 23:44:00,71.3,68.2,29.97,West,281,0.0,1.0,90,0.00,,,0.00,Wunderground v.1.15,2013-08-22 03:44:00,
2013-08-21 23:50:00,71.1,68.0,29.97,West,281,0.0,1.0,90,0.00,,,0.00,Wunderground v.1.15,2013-08-22 03:50:00,
2013-08-21 23:56:00,71.1,68.3,29.97,West,281,0.0,1.0,91,0.00,,,0.00,Wunderground v.1.15,2013-08-22 03:56:00,